createdAt,value
2019-01-29T17:10:09.116Z,38.58
2019-01-29T17:12:37.318Z,29.83
2019-01-29T17:15:17.195Z,36.33
2019-01-29T17:17:45.409Z,31.17
2019-01-29T17:20:22.048Z,35.90
2019-01-29T17:22:50.257Z,39.57
2019-01-29T17:25:18.526Z,81.23
2019-01-29T17:27:46.752Z,55.10
2019-01-29T17:30:27.039Z,52.37
2019-01-29T17:32:55.257Z,51.43
2019-01-29T17:35:23.485Z,45.07
2019-01-29T17:37:51.718Z,46.23
2019-01-29T17:40:21.365Z,33.60
2019-01-29T17:42:49.610Z,119.60
2019-01-29T17:45:21.090Z,65.50
2019-01-29T17:47:49.315Z,35.03
2019-01-29T17:50:20.647Z,34.13
2019-01-29T17:52:48.887Z,58.93
2019-01-29T17:55:17.632Z,40.30
2019-01-29T17:57:50.756Z,35.47
2019-01-29T18:00:19.058Z,36.13
2019-01-29T18:02:47.301Z,27.90
2019-01-29T18:05:15.515Z,31.67
2019-01-29T18:07:43.735Z,29.20
2019-01-29T18:10:14.879Z,24.90
2019-01-29T18:12:43.102Z,19.67
2019-01-29T18:15:14.891Z,13.50
2019-01-29T18:17:43.107Z,19.77
2019-01-29T18:20:11.412Z,16.73
2019-01-29T18:22:39.690Z,16.77
2019-01-29T18:25:10.378Z,20.67
2019-01-29T18:27:38.585Z,14.17
2019-01-29T18:30:10.059Z,13.73
2019-01-29T18:32:38.298Z,8.63
2019-01-29T18:35:08.266Z,9.23
2019-01-29T18:37:36.513Z,8.97
2019-01-29T18:40:07.976Z,7.93
2019-01-29T18:42:36.170Z,7.33
2019-01-29T18:45:06.145Z,7.43
2019-01-29T18:47:34.354Z,8.93
2019-01-29T18:50:02.557Z,5.70
2019-01-29T18:52:30.779Z,6.87
2019-01-29T18:54:58.975Z,11.57
2019-01-29T18:57:27.202Z,16.30
2019-01-29T18:59:55.404Z,12.90
2019-01-29T19:02:23.730Z,11.50
2019-01-29T19:04:51.904Z,8.63
2019-01-29T19:07:20.131Z,6.77
2019-01-29T19:09:48.324Z,9.47
2019-01-29T19:12:16.613Z,9.50
2019-01-29T19:14:44.859Z,10.93
2019-01-29T19:17:13.060Z,8.13
2019-01-29T19:19:41.279Z,9.67
2019-01-29T19:22:09.478Z,5.80
2019-01-29T19:24:37.713Z,7.27
2019-01-29T19:27:05.930Z,8.03
2019-01-29T19:29:34.171Z,6.67
2019-01-29T19:32:02.452Z,9.18
2019-01-29T19:34:30.694Z,10.30
2019-01-29T19:36:58.921Z,12.97
2019-01-29T19:39:27.138Z,12.43
2019-01-29T19:41:55.386Z,9.77
2019-01-29T19:44:23.577Z,12.53
2019-01-29T19:46:51.801Z,8.00
2019-01-29T19:49:20.027Z,6.47
2019-01-29T19:51:49.096Z,11.77
2019-01-29T19:54:17.411Z,10.13
2019-01-29T19:56:45.657Z,7.77
2019-01-29T19:59:13.851Z,11.13
2019-01-29T20:01:42.082Z,7.50
2019-01-29T20:04:10.323Z,10.03
2019-01-29T20:06:38.529Z,10.93
2019-01-29T20:09:09.413Z,6.20
2019-01-29T20:11:37.623Z,14.13
2019-01-29T20:14:05.934Z,14.60
2019-01-29T20:16:34.150Z,10.20
2019-01-29T20:19:02.387Z,16.17
2019-01-29T20:21:30.615Z,17.97
2019-01-29T20:23:58.865Z,12.60
2019-01-29T20:26:27.081Z,11.07
2019-01-29T20:28:55.317Z,14.73
2019-01-29T20:31:23.551Z,7.73
2019-01-29T20:33:51.772Z,8.80
2019-01-29T20:36:19.995Z,8.83
2019-01-29T20:38:48.274Z,12.67
2019-01-29T20:41:16.488Z,6.90
2019-01-29T20:43:44.691Z,10.80
2019-01-29T20:46:12.919Z,6.83
2019-01-29T20:48:41.125Z,7.53
2019-01-29T20:51:09.341Z,6.63
2019-01-29T20:53:37.537Z,7.97
2019-01-29T20:56:05.781Z,9.07
2019-01-29T20:58:34.002Z,20.03
2019-01-29T21:01:02.228Z,4.20
2019-01-29T21:03:30.430Z,8.87
2019-01-29T21:05:58.724Z,6.13
2019-01-29T21:08:26.914Z,10.57
2019-01-29T21:10:55.135Z,5.30
2019-01-29T21:13:23.358Z,6.47
2019-01-29T21:15:51.577Z,6.57
2019-01-29T21:18:19.789Z,9.67
2019-01-29T21:20:56.896Z,9.10
2019-01-29T21:23:17.935Z,9.93
2019-01-29T21:25:46.136Z,5.80
2019-01-29T21:28:14.366Z,5.43
2019-01-29T21:30:44.031Z,4.37
2019-01-29T21:33:12.385Z,4.00
2019-01-29T21:35:40.596Z,5.30
2019-01-29T21:38:08.796Z,7.67
2019-01-29T21:40:37.038Z,3.77
2019-01-29T21:43:05.227Z,6.23
2019-01-29T21:45:33.477Z,6.90
2019-01-29T21:48:01.737Z,9.23
2019-01-29T21:50:34.336Z,9.63
2019-01-29T21:53:02.547Z,2.67
2019-01-29T21:55:30.868Z,4.10
2019-01-29T21:57:59.496Z,6.43
2019-01-29T22:00:30.332Z,6.57
2019-01-29T22:02:58.561Z,8.77
2019-01-29T22:05:26.770Z,8.60
2019-01-29T22:07:57.499Z,6.27
2019-01-29T22:10:24.959Z,6.83
2019-01-29T22:12:53.160Z,3.77
2019-01-29T22:15:23.756Z,7.07
2019-01-29T22:17:51.984Z,9.43
2019-01-29T22:20:21.610Z,5.40
2019-01-29T22:22:49.818Z,4.60
2019-01-29T22:25:22.317Z,7.30
2019-01-29T22:27:50.502Z,8.33
2019-01-29T22:30:34.040Z,8.50
2019-01-29T22:33:02.231Z,6.00
2019-01-29T22:35:30.474Z,12.33
2019-01-29T22:37:58.713Z,11.60
2019-01-29T22:40:29.580Z,6.40
2019-01-29T22:42:57.960Z,7.83
2019-01-29T22:45:26.180Z,5.50
2019-01-29T22:47:54.406Z,4.07
2019-01-29T22:50:30.882Z,6.40
2019-01-29T22:52:59.116Z,4.67
2019-01-29T22:55:27.328Z,5.20
2019-01-29T22:57:55.537Z,3.90
2019-01-29T23:00:51.119Z,7.10
2019-01-29T23:03:25.595Z,7.77
2019-01-29T23:05:59.628Z,7.70
2019-01-29T23:08:27.858Z,6.30
2019-01-29T23:10:57.465Z,5.63
2019-01-29T23:13:25.755Z,4.80
2019-01-29T23:15:53.962Z,8.07
2019-01-29T23:18:22.188Z,5.67
2019-01-29T23:20:50.415Z,4.50
2019-01-29T23:23:18.627Z,6.53
2019-01-29T23:25:46.830Z,8.83
2019-01-29T23:28:15.052Z,4.53
2019-01-29T23:30:43.246Z,3.90
2019-01-29T23:33:11.475Z,3.53
2019-01-29T23:35:39.672Z,4.03
2019-01-29T23:38:07.881Z,4.57
2019-01-29T23:40:36.109Z,3.30
2019-01-29T23:43:04.310Z,2.87
2019-01-29T23:45:32.500Z,2.80
2019-01-29T23:48:00.703Z,5.40
2019-01-29T23:50:29.636Z,3.60
2019-01-29T23:52:57.852Z,5.07
2019-01-29T23:55:26.536Z,3.87
2019-01-29T23:57:54.732Z,3.20
